Time;durP1;ratioP1;P1;durP2;ratioP2;P2;SDS_P1;SDS_P2;PMS_P1;PMS_P2;Temp;Humidity;BMP_temperature;BMP_pressure;BME280_temperature;BME280_humidity;BME280_pressure;Samples;Min_cycle;Max_cycle;Signal;HPM_P1;HPM_P2
2021/09/20 00:01:07;;;;;;;26.40;24.80;;;14.70;87.40;;;;;;5048573;28;20481;-72
2021/09/20 00:03:35;;;;;;;27.27;25.67;;;14.50;88.10;;;;;;5047576;28;20465;-72
2021/09/20 00:06:02;;;;;;;27.67;25.97;;;14.50;88.40;;;;;;5051398;28;20464;-71
2021/09/20 00:08:29;;;;;;;28.03;26.33;;;14.50;88.60;;;;;;5041970;28;20465;-72
2021/09/20 00:10:56;;;;;;;28.23;26.43;;;14.50;88.40;;;;;;5048151;28;20500;-71
2021/09/20 00:13:23;;;;;;;28.17;26.43;;;14.60;88.10;;;;;;5050086;28;20465;-71
2021/09/20 00:15:50;;;;;;;27.30;25.63;;;14.70;87.40;;;;;;5050454;28;20536;-71
2021/09/20 00:18:16;;;;;;;27.47;25.77;;;14.60;87.80;;;;;;5039665;28;20460;-71
2021/09/20 00:20:45;;;;;;;26.43;24.83;;;14.50;88.10;;;;;;5050531;28;20505;-72
2021/09/20 00:23:12;;;;;;;27.03;25.43;;;14.50;88.30;;;;;;5044102;28;20953;-71
2021/09/20 00:25:39;;;;;;;26.13;24.57;;;14.60;87.80;;;;;;5051079;28;20460;-71
2021/09/20 00:28:06;;;;;;;26.17;24.57;;;14.60;87.70;;;;;;5043743;28;21064;-71
2021/09/20 00:30:32;;;;;;;26.73;25.13;;;14.70;87.70;;;;;;5052068;28;20485;-72
2021/09/20 00:33:00;;;;;;;26.40;24.90;;;14.90;87.20;;;;;;5048300;28;20575;-72
2021/09/20 00:35:26;;;;;;;27.33;25.63;;;14.90;86.80;;;;;;5053325;28;20452;-71
2021/09/20 00:37:55;;;;;;;28.17;26.47;;;14.80;86.90;;;;;;5046161;28;20549;-71
2021/09/20 00:40:21;;;;;;;26.40;24.70;;;14.90;87.00;;;;;;5045126;28;20998;-71
2021/09/20 00:42:48;;;;;;;27.30;25.70;;;14.90;86.90;;;;;;5050738;28;20464;-73
2021/09/20 00:45:15;;;;;;;27.23;25.53;;;14.90;86.90;;;;;;5033090;28;20465;-72
2021/09/20 00:47:42;;;;;;;27.93;26.03;;;14.90;86.70;;;;;;5049427;28;20802;-73
2021/09/20 00:50:10;;;;;;;27.83;26.10;;;15.00;86.40;;;;;;5036064;28;20470;-72
2021/09/20 00:52:38;;;;;;;27.50;25.90;;;15.00;86.10;;;;;;5049633;28;20472;-73
2021/09/20 00:55:08;;;;;;;27.03;25.43;;;15.00;86.10;;;;;;5041044;28;20462;-72
2021/09/20 00:57:35;;;;;;;27.60;25.80;;;14.90;86.20;;;;;;5050482;28;20980;-72
2021/09/20 01:00:04;;;;;;;27.73;26.13;;;14.90;86.70;;;;;;5041504;28;20490;-72
2021/09/20 01:02:31;;;;;;;27.57;26.07;;;14.90;86.60;;;;;;5043108;28;20472;-72
2021/09/20 01:04:57;;;;;;;27.40;25.80;;;15.00;86.30;;;;;;5032521;28;20454;-72
2021/09/20 01:07:24;;;;;;;27.13;25.53;;;14.90;86.30;;;;;;5041666;28;20462;-72
2021/09/20 01:09:52;;;;;;;26.47;24.97;;;14.80;86.80;;;;;;5046770;28;20487;-72
2021/09/20 01:12:21;;;;;;;27.37;25.87;;;14.80;86.80;;;;;;5052762;28;20458;-73
2021/09/20 01:14:48;;;;;;;27.87;26.00;;;14.80;86.90;;;;;;5037014;28;20462;-72
2021/09/20 01:17:15;;;;;;;28.27;26.57;;;14.80;86.70;;;;;;5044385;28;20466;-72
2021/09/20 01:19:42;;;;;;;27.50;25.90;;;14.80;86.60;;;;;;5046680;28;20572;-72
2021/09/20 01:22:14;;;;;;;26.77;25.27;;;14.90;86.70;;;;;;5054935;28;20465;-73
2021/09/20 01:24:43;;;;;;;29.10;27.27;;;14.90;86.70;;;;;;5046794;28;20466;-73
2021/09/20 01:27:10;;;;;;;26.93;25.33;;;14.90;86.90;;;;;;5040531;28;20485;-72
2021/09/20 01:29:37;;;;;;;27.30;25.70;;;14.90;86.50;;;;;;5042603;28;20573;-72
2021/09/20 01:32:05;;;;;;;27.43;25.90;;;15.00;86.60;;;;;;5044840;28;20476;-72
2021/09/20 01:34:33;;;;;;;28.77;27.07;;;15.00;86.20;;;;;;5047322;28;20463;-72
2021/09/20 01:37:00;;;;;;;28.73;27.03;;;15.00;85.70;;;;;;5048937;28;20470;-72
2021/09/20 01:39:29;;;;;;;28.30;26.60;;;15.00;85.80;;;;;;5045901;28;20497;-72
2021/09/20 01:41:58;;;;;;;27.90;26.20;;;14.90;86.40;;;;;;5036197;28;20463;-73
2021/09/20 01:44:26;;;;;;;28.00;26.30;;;14.90;86.40;;;;;;5045601;28;20465;-72
2021/09/20 01:46:54;;;;;;;27.07;25.47;;;14.90;86.10;;;;;;5046585;28;20459;-71
2021/09/20 01:49:22;;;;;;;27.97;26.37;;;14.80;86.40;;;;;;5039611;28;20482;-71
2021/09/20 01:51:49;;;;;;;28.77;26.97;;;14.70;86.80;;;;;;5047438;28;20835;-71
2021/09/20 01:54:16;;;;;;;28.30;26.40;;;14.70;86.60;;;;;;5056219;28;20451;-71
2021/09/20 01:56:44;;;;;;;27.27;25.70;;;14.80;86.50;;;;;;5049366;28;20455;-71
2021/09/20 01:59:12;;;;;;;27.77;26.07;;;14.70;86.70;;;;;;5044483;28;20490;-71
2021/09/20 02:01:39;;;;;;;27.63;26.03;;;14.80;86.30;;;;;;5041752;28;20486;-71
2021/09/20 02:04:06;;;;;;;27.23;25.60;;;14.60;86.90;;;;;;5047214;28;20486;-71
2021/09/20 02:06:33;;;;;;;28.40;26.60;;;14.60;87.00;;;;;;5047296;28;20460;-72
2021/09/20 02:09:00;;;;;;;27.57;25.90;;;14.60;87.40;;;;;;5046399;28;20486;-72
2021/09/20 02:11:27;;;;;;;29.17;27.27;;;14.60;87.30;;;;;;5049480;28;20825;-72
2021/09/20 02:13:55;;;;;;;28.87;27.07;;;14.60;87.30;;;;;;5051476;28;20462;-72
2021/09/20 02:16:23;;;;;;;29.60;27.70;;;14.50;87.60;;;;;;5057612;28;20458;-71
2021/09/20 02:18:50;;;;;;;28.77;26.87;;;14.40;87.80;;;;;;5043556;28;20996;-71
2021/09/20 02:21:18;;;;;;;28.33;26.63;;;14.40;88.00;;;;;;5051880;28;20481;-71
2021/09/20 02:23:44;;;;;;;29.47;27.67;;;14.50;87.90;;;;;;5052122;28;20506;-71
2021/09/20 02:26:11;;;;;;;29.40;27.60;;;14.30;88.20;;;;;;5054633;28;20487;-71
2021/09/20 02:28:39;;;;;;;29.10;27.10;;;14.20;88.70;;;;;;5043975;28;20556;-71
2021/09/20 02:31:07;;;;;;;27.87;25.83;;;14.40;88.50;;;;;;5044736;28;20475;-71
2021/09/20 02:33:37;;;;;;;27.53;25.83;;;14.50;88.10;;;;;;5039380;28;20467;-71
2021/09/20 02:36:06;;;;;;;29.80;27.70;;;14.50;88.00;;;;;;5036004;28;20562;-71
2021/09/20 02:38:33;;;;;;;28.13;26.43;;;14.50;87.90;;;;;;5047503;28;20466;-71
2021/09/20 02:41:00;;;;;;;29.13;27.33;;;14.50;87.80;;;;;;5050203;28;20478;-72
2021/09/20 02:43:28;;;;;;;29.13;27.33;;;14.50;87.90;;;;;;5050438;28;21319;-71
2021/09/20 02:45:55;;;;;;;29.00;27.00;;;14.50;87.80;;;;;;5052508;28;20948;-71
2021/09/20 02:48:22;;;;;;;29.10;27.33;;;14.50;87.80;;;;;;5047587;28;20460;-71
2021/09/20 02:50:50;;;;;;;28.90;27.17;;;14.40;87.90;;;;;;5041972;28;20481;-72
2021/09/20 02:53:17;;;;;;;28.07;26.37;;;14.40;88.20;;;;;;5048935;28;20472;-71
2021/09/20 02:55:44;;;;;;;28.80;26.87;;;14.40;88.40;;;;;;5049418;28;20451;-71
2021/09/20 02:58:11;;;;;;;28.07;26.17;;;14.40;88.40;;;;;;5046857;28;20457;-71
2021/09/20 03:00:39;;;;;;;30.43;28.53;;;14.40;88.50;;;;;;5052406;28;21033;-72
2021/09/20 03:03:07;;;;;;;27.70;26.10;;;14.50;88.60;;;;;;5037565;28;22478;-72
2021/09/20 03:05:35;;;;;;;28.90;26.60;;;14.50;88.60;;;;;;5045200;28;20455;-73
2021/09/20 03:08:05;;;;;;;27.80;26.10;;;14.50;88.60;;;;;;5046281;28;20464;-72
2021/09/20 03:10:32;;;;;;;27.60;25.90;;;14.60;88.60;;;;;;5052228;28;20476;-72
2021/09/20 03:12:59;;;;;;;29.20;27.50;;;14.60;88.40;;;;;;5036318;28;20463;-72
2021/09/20 03:15:26;;;;;;;27.93;26.20;;;14.60;88.30;;;;;;5053490;28;20463;-72
2021/09/20 03:17:53;;;;;;;28.90;27.10;;;14.60;88.40;;;;;;5048012;28;20802;-72
2021/09/20 03:20:20;;;;;;;28.67;27.00;;;14.60;88.40;;;;;;5039307;28;20977;-73
2021/09/20 03:22:47;;;;;;;27.73;26.03;;;14.60;88.30;;;;;;5050418;28;20469;-72
2021/09/20 03:25:16;;;;;;;28.20;26.10;;;14.60;88.40;;;;;;5038961;28;20451;-73
2021/09/20 03:27:44;;;;;;;28.37;26.57;;;14.70;88.20;;;;;;5046551;28;20572;-73
2021/09/20 03:30:12;;;;;;;30.13;28.40;;;14.70;88.20;;;;;;5048835;28;20482;-72
2021/09/20 03:32:39;;;;;;;28.27;26.57;;;14.60;88.30;;;;;;5040241;28;20461;-72
2021/09/20 03:35:09;;;;;;;27.87;26.27;;;14.60;88.30;;;;;;5049127;28;20980;-72
2021/09/20 03:37:36;;;;;;;27.17;25.47;;;14.60;88.30;;;;;;5049682;28;20465;-72
2021/09/20 03:40:04;;;;;;;29.20;27.40;;;14.60;88.30;;;;;;5047646;28;20482;-72
2021/09/20 03:42:33;;;;;;;29.87;28.00;;;14.60;88.40;;;;;;5041167;28;20966;-72
2021/09/20 03:45:00;;;;;;;28.63;26.83;;;14.60;88.40;;;;;;5035847;28;20489;-72
2021/09/20 03:47:26;;;;;;;28.90;27.00;;;14.60;88.60;;;;;;5048301;28;20981;-72
2021/09/20 03:49:53;;;;;;;27.80;26.00;;;14.60;88.40;;;;;;5034867;28;20487;-72
2021/09/20 03:52:20;;;;;;;28.67;26.90;;;14.60;88.30;;;;;;5052873;28;20546;-72
2021/09/20 03:54:47;;;;;;;28.30;26.40;;;14.60;88.20;;;;;;5051999;28;20460;-72
2021/09/20 03:57:14;;;;;;;29.07;27.30;;;14.60;88.30;;;;;;5048105;28;20459;-72
2021/09/20 03:59:42;;;;;;;30.33;28.53;;;14.60;88.30;;;;;;5054426;28;20496;-72
2021/09/20 04:02:09;;;;;;;29.77;27.77;;;14.70;88.20;;;;;;5051023;28;20486;-72
2021/09/20 04:04:36;;;;;;;30.33;28.43;;;14.70;88.00;;;;;;5044342;28;20451;-72
2021/09/20 04:07:05;;;;;;;28.93;27.23;;;14.70;88.20;;;;;;5035007;28;20605;-72
2021/09/20 04:09:32;;;;;;;28.07;26.47;;;14.60;88.50;;;;;;5047698;28;20551;-72
2021/09/20 04:11:59;;;;;;;28.83;27.03;;;14.60;88.70;;;;;;5056122;28;20825;-72
2021/09/20 04:14:26;;;;;;;29.30;27.40;;;14.60;88.50;;;;;;5057222;28;20460;-73
2021/09/20 04:16:54;;;;;;;31.60;28.90;;;14.60;88.60;;;;;;5041094;28;20483;-72
2021/09/20 04:19:21;;;;;;;30.70;28.70;;;14.60;88.50;;;;;;5047694;28;20563;-72
2021/09/20 04:21:48;;;;;;;30.30;28.40;;;14.60;88.60;;;;;;5049788;28;20479;-72
2021/09/20 04:24:15;;;;;;;27.63;26.03;;;14.60;88.70;;;;;;5053385;28;20487;-72
2021/09/20 04:26:42;;;;;;;30.50;28.60;;;14.60;88.40;;;;;;5039746;28;20461;-73
2021/09/20 04:29:09;;;;;;;30.03;28.03;;;14.60;88.40;;;;;;5053284;28;20466;-73
2021/09/20 04:31:36;;;;;;;30.63;28.83;;;14.70;88.30;;;;;;5049815;28;20917;-75
2021/09/20 04:34:04;;;;;;;28.70;26.90;;;14.70;87.80;;;;;;5055140;28;20870;-73
2021/09/20 04:36:31;;;;;;;30.80;28.90;;;14.70;87.90;;;;;;5035994;28;20463;-74
2021/09/20 04:38:58;;;;;;;30.90;29.00;;;14.70;88.00;;;;;;5042312;28;20550;-73
2021/09/20 04:41:25;;;;;;;33.00;30.87;;;14.70;88.10;;;;;;5053953;28;20483;-73
2021/09/20 04:43:52;;;;;;;29.97;28.07;;;14.60;88.20;;;;;;5041096;28;20543;-73
2021/09/20 04:46:19;;;;;;;29.30;27.50;;;14.60;88.20;;;;;;5042258;28;20469;-73
2021/09/20 04:48:46;;;;;;;29.63;27.73;;;14.60;88.20;;;;;;5045960;28;20470;-73
2021/09/20 04:51:14;;;;;;;31.70;29.80;;;14.60;88.40;;;;;;5042109;28;20458;-74
2021/09/20 04:53:41;;;;;;;27.90;26.20;;;14.60;88.40;;;;;;5048137;28;20459;-72
2021/09/20 04:56:08;;;;;;;29.17;27.37;;;14.60;88.40;;;;;;5040522;28;20462;-73
2021/09/20 04:58:35;;;;;;;29.03;27.23;;;14.60;88.50;;;;;;5044615;28;20474;-75
2021/09/20 05:01:02;;;;;;;30.23;28.40;;;14.70;88.40;;;;;;5046715;28;21022;-71
2021/09/20 05:03:29;;;;;;;30.30;28.47;;;14.60;88.40;;;;;;5047176;28;20994;-73
2021/09/20 05:05:56;;;;;;;29.57;27.50;;;14.60;88.60;;;;;;5035795;28;20459;-74
2021/09/20 05:08:24;;;;;;;28.80;27.00;;;14.70;88.50;;;;;;5033210;28;20473;-75
2021/09/20 05:10:51;;;;;;;28.90;27.10;;;14.70;88.40;;;;;;5042084;28;21018;-74
2021/09/20 05:13:18;;;;;;;29.53;27.30;;;14.70;88.30;;;;;;5035794;28;20849;-74
2021/09/20 05:15:45;;;;;;;29.80;27.90;;;14.70;88.30;;;;;;5047661;28;20465;-74
2021/09/20 05:18:13;;;;;;;30.10;28.30;;;14.80;88.20;;;;;;5042881;28;21414;-75
2021/09/20 05:20:40;;;;;;;28.35;26.55;;;14.80;88.10;;;;;;5042117;28;20489;-74
2021/09/20 05:23:07;;;;;;;29.53;27.70;;;14.80;88.30;;;;;;5043476;28;20291;-71
2021/09/20 05:25:36;;;;;;;29.53;27.77;;;14.80;87.80;;;;;;5041498;28;20493;-72
2021/09/20 05:28:03;;;;;;;29.23;27.23;;;14.90;87.80;;;;;;5035867;28;20467;-71
2021/09/20 05:30:30;;;;;;;29.03;27.03;;;14.80;88.00;;;;;;5031715;28;20570;-72
2021/09/20 05:32:58;;;;;;;29.90;28.10;;;14.80;88.10;;;;;;5041861;28;20496;-74
2021/09/20 05:35:26;;;;;;;29.43;27.57;;;14.80;88.10;;;;;;5042712;28;20470;-76
2021/09/20 05:37:53;;;;;;;29.27;27.37;;;14.90;87.80;;;;;;5046152;28;20900;-73
2021/09/20 05:40:22;;;;;;;28.60;26.90;;;15.00;87.60;;;;;;5040341;28;20479;-74
2021/09/20 05:42:55;;;;;;;29.77;27.67;;;15.00;87.60;;;;;;5043956;28;20508;-74
2021/09/20 05:45:23;;;;;;;29.87;27.90;;;15.00;87.50;;;;;;5046666;28;20540;-73
2021/09/20 05:47:51;;;;;;;29.10;27.30;;;15.00;87.60;;;;;;5046770;28;20462;-79
2021/09/20 05:50:19;;;;;;;29.67;27.87;;;15.10;87.40;;;;;;5045970;28;20566;-74
2021/09/20 05:52:47;;;;;;;28.40;26.60;;;15.10;87.30;;;;;;5043574;28;20968;-74
2021/09/20 05:55:14;;;;;;;29.37;27.53;;;15.10;87.20;;;;;;5045527;28;20470;-74
2021/09/20 05:57:41;;;;;;;29.90;28.00;;;15.10;87.20;;;;;;5047893;28;20862;-74
2021/09/20 06:00:11;;;;;;;28.07;26.37;;;15.10;87.30;;;;;;5045411;28;20479;-74
2021/09/20 06:02:38;;;;;;;31.10;29.10;;;15.20;87.20;;;;;;5047789;28;20478;-74
2021/09/20 06:05:06;;;;;;;30.00;28.20;;;15.20;87.30;;;;;;5045095;28;21029;-74
2021/09/20 06:07:33;;;;;;;31.45;29.35;;;15.10;87.70;;;;;;5047474;28;20477;-74
2021/09/20 06:10:00;;;;;;;29.97;28.13;;;15.20;87.60;;;;;;5043508;28;20674;-74
2021/09/20 06:12:30;;;;;;;28.60;26.90;;;15.20;87.40;;;;;;5040806;28;20957;-73
2021/09/20 06:14:56;;;;;;;29.13;27.33;;;15.30;87.40;;;;;;5047689;28;20828;-74
2021/09/20 06:17:25;;;;;;;32.57;30.30;;;15.30;87.10;;;;;;5044649;28;20462;-75
2021/09/20 06:19:52;;;;;;;29.60;27.80;;;15.40;87.10;;;;;;5041452;28;20490;-74
2021/09/20 06:22:19;;;;;;;29.87;27.97;;;15.40;87.30;;;;;;5048934;28;20544;-74
2021/09/20 06:24:46;;;;;;;28.83;26.93;;;15.50;86.80;;;;;;5045479;28;20873;-75
2021/09/20 06:27:13;;;;;;;31.00;29.00;;;15.60;86.60;;;;;;5040405;28;20465;-74
2021/09/20 06:29:40;;;;;;;29.60;27.70;;;15.70;86.00;;;;;;5045012;28;20485;-73
2021/09/20 06:32:09;;;;;;;30.77;28.87;;;15.70;85.60;;;;;;5038618;28;20462;-75
2021/09/20 06:34:40;;;;;;;29.27;27.47;;;15.70;85.60;;;;;;5035639;28;20455;-74
2021/09/20 06:37:07;;;;;;;29.47;27.67;;;15.70;85.40;;;;;;5044898;28;20566;-75
2021/09/20 06:39:34;;;;;;;30.00;28.00;;;15.80;85.30;;;;;;5039093;28;20571;-75
2021/09/20 06:42:02;;;;;;;31.87;29.67;;;15.80;85.20;;;;;;5031274;28;20487;-74
2021/09/20 06:44:29;;;;;;;31.50;29.50;;;15.90;85.00;;;;;;5033036;28;21254;-73
2021/09/20 06:46:57;;;;;;;32.70;30.40;;;15.80;85.60;;;;;;5041541;28;20466;-74
2021/09/20 06:49:24;;;;;;;32.63;30.43;;;15.90;85.20;;;;;;5046384;28;20483;-73
2021/09/20 06:51:52;;;;;;;31.40;29.10;;;15.90;85.20;;;;;;5047259;28;20925;-73
2021/09/20 06:54:19;;;;;;;32.97;30.27;;;16.10;84.80;;;;;;5045757;28;20463;-74
2021/09/20 06:56:47;;;;;;;32.10;29.90;;;16.20;84.30;;;;;;5044297;28;20558;-73
2021/09/20 06:59:14;;;;;;;31.90;29.70;;;16.20;84.50;;;;;;5041590;28;20487;-74
2021/09/20 07:01:41;;;;;;;32.60;30.20;;;16.10;84.50;;;;;;5042497;28;20562;-74
2021/09/20 07:04:10;;;;;;;31.97;29.77;;;16.10;84.80;;;;;;5047553;28;20488;-74
2021/09/20 07:06:37;;;;;;;32.17;30.00;;;16.20;85.00;;;;;;5039603;28;20452;-73
2021/09/20 07:09:06;;;;;;;31.93;29.83;;;16.20;85.00;;;;;;5038736;28;20491;-74
2021/09/20 07:11:33;;;;;;;31.60;29.60;;;16.30;83.50;;;;;;5047070;28;20447;-73
2021/09/20 07:14:00;;;;;;;32.57;30.27;;;16.30;83.20;;;;;;5048806;28;20538;-74
2021/09/20 07:16:27;;;;;;;31.70;29.60;;;16.50;82.40;;;;;;5046788;28;20545;-74
2021/09/20 07:18:54;;;;;;;32.70;30.20;;;16.70;81.80;;;;;;5045797;28;20546;-75
2021/09/20 07:21:23;;;;;;;32.70;30.40;;;16.70;81.50;;;;;;5040578;28;20935;-74
2021/09/20 07:23:50;;;;;;;33.97;31.67;;;16.60;81.80;;;;;;5046417;28;20459;-72
2021/09/20 07:26:18;;;;;;;33.57;31.17;;;16.70;81.50;;;;;;5047431;28;20466;-74
2021/09/20 07:28:45;;;;;;;32.43;30.23;;;16.80;81.20;;;;;;5046234;28;20840;-73
2021/09/20 07:31:12;;;;;;;35.53;33.10;;;16.80;80.90;;;;;;5044702;28;20456;-74
2021/09/20 07:33:39;;;;;;;31.30;29.30;;;16.70;81.50;;;;;;5045796;28;20451;-74
2021/09/20 07:36:06;;;;;;;31.60;29.20;;;16.70;81.50;;;;;;5048610;28;20814;-73
2021/09/20 07:38:33;;;;;;;33.40;31.10;;;16.70;81.60;;;;;;5044264;28;20469;-74
2021/09/20 07:41:00;;;;;;;33.93;31.53;;;16.70;81.90;;;;;;5037929;28;20570;-75
2021/09/20 07:43:29;;;;;;;33.10;30.90;;;16.80;81.70;;;;;;5043055;28;20471;-74
2021/09/20 07:45:56;;;;;;;32.63;30.03;;;16.90;81.40;;;;;;5042397;28;20455;-74
2021/09/20 07:48:22;;;;;;;33.63;30.73;;;17.10;81.10;;;;;;5043033;28;20458;-74
2021/09/20 07:50:50;;;;;;;33.60;31.30;;;17.20;80.60;;;;;;5046860;28;20933;-74
2021/09/20 07:53:17;;;;;;;33.40;31.20;;;17.30;80.30;;;;;;5044615;28;20821;-75
2021/09/20 07:55:44;;;;;;;35.07;32.67;;;17.50;80.00;;;;;;5045042;28;20474;-75
2021/09/20 07:58:12;;;;;;;33.90;31.50;;;17.50;79.20;;;;;;5043840;28;20528;-72
2021/09/20 08:00:43;;;;;;;35.20;32.50;;;17.60;78.20;;;;;;5042914;28;20598;-73
2021/09/20 08:03:11;;;;;;;34.03;31.73;;;17.50;78.90;;;;;;5043348;28;21080;-74
2021/09/20 08:05:40;;;;;;;35.40;32.90;;;17.50;79.40;;;;;;5034722;28;20549;-73
2021/09/20 08:08:07;;;;;;;35.30;32.67;;;17.70;78.50;;;;;;5035424;28;20496;-73
2021/09/20 08:10:35;;;;;;;34.90;32.50;;;17.50;78.50;;;;;;5032310;28;20549;-73
2021/09/20 08:13:04;;;;;;;36.50;34.00;;;17.40;79.00;;;;;;5038926;28;21682;-74
2021/09/20 08:15:31;;;;;;;36.53;33.70;;;17.30;79.50;;;;;;5048022;28;20534;-73
2021/09/20 08:17:59;;;;;;;36.60;33.83;;;17.50;79.10;;;;;;5041958;28;20462;-74
2021/09/20 08:20:27;;;;;;;38.40;34.97;;;17.50;79.40;;;;;;5046485;28;20485;-72
2021/09/20 08:22:54;;;;;;;36.50;33.60;;;17.60;79.40;;;;;;5036543;28;20521;-75
2021/09/20 08:25:23;;;;;;;35.40;32.90;;;17.70;78.80;;;;;;5042154;28;20470;-74
2021/09/20 08:27:51;;;;;;;34.80;32.30;;;17.80;78.50;;;;;;5045621;28;20469;-73
2021/09/20 08:30:19;;;;;;;35.90;33.30;;;17.90;78.30;;;;;;5034098;28;20479;-72
2021/09/20 08:32:46;;;;;;;36.73;34.03;;;18.00;78.20;;;;;;5046764;28;20463;-74
2021/09/20 08:35:15;;;;;;;35.50;32.80;;;18.20;77.80;;;;;;5044038;28;20460;-73
2021/09/20 08:37:42;;;;;;;35.70;32.90;;;18.30;77.30;;;;;;5047978;28;20463;-72
2021/09/20 08:40:10;;;;;;;35.23;32.70;;;18.40;76.90;;;;;;5032789;28;20482;-74
2021/09/20 08:42:38;;;;;;;36.97;34.30;;;18.70;75.90;;;;;;5043456;28;20586;-75
2021/09/20 08:45:08;;;;;;;37.10;34.10;;;18.60;75.60;;;;;;5039018;28;21734;-75
2021/09/20 08:47:37;;;;;;;36.63;33.90;;;18.60;75.80;;;;;;5042379;28;20579;-75
2021/09/20 08:50:05;;;;;;;39.50;36.50;;;18.70;75.80;;;;;;5038426;28;20477;-75
2021/09/20 08:52:33;;;;;;;38.27;35.50;;;19.00;74.40;;;;;;5043916;28;20542;-75
2021/09/20 08:55:00;;;;;;;37.60;34.50;;;18.90;74.10;;;;;;5045259;28;20501;-75
2021/09/20 08:57:27;;;;;;;37.60;34.80;;;18.90;74.20;;;;;;5038689;28;20483;-75
2021/09/20 08:59:54;;;;;;;39.83;36.40;;;18.90;74.40;;;;;;5030491;28;20503;-75
2021/09/20 09:02:23;;;;;;;38.07;34.90;;;18.90;75.80;;;;;;5045570;28;20487;-76
2021/09/20 09:04:50;;;;;;;40.13;36.87;;;19.00;75.10;;;;;;5045403;28;20475;-83
2021/09/20 09:07:21;;;;;;;39.37;36.17;;;19.10;75.00;;;;;;5039065;28;20546;-76
2021/09/20 09:09:52;;;;;;;38.87;36.07;;;19.30;74.90;;;;;;5045096;28;20840;-77
2021/09/20 09:12:45;;;;;;;39.63;36.30;;;19.20;74.00;;;;;;5041886;28;20946;-76
2021/09/20 09:15:23;;;;;;;39.43;36.53;;;19.30;73.70;;;;;;5044240;28;21234;-75
2021/09/20 09:17:53;;;;;;;40.10;37.00;;;19.30;73.60;;;;;;5036625;28;20821;-73
2021/09/20 09:20:23;;;;;;;40.20;37.33;;;19.40;73.20;;;;;;5042873;28;20483;-73
2021/09/20 09:22:53;;;;;;;41.50;38.30;;;19.20;73.50;;;;;;5039226;28;20479;-72
2021/09/20 09:25:23;;;;;;;38.97;36.07;;;19.20;74.10;;;;;;5040125;28;20470;-72
2021/09/20 09:27:52;;;;;;;45.97;42.37;;;19.10;74.10;;;;;;5035550;28;20493;-72
2021/09/20 09:30:23;;;;;;;42.43;38.93;;;19.20;74.60;;;;;;5030393;28;20486;-72
2021/09/20 09:33:03;;;;;;;41.20;38.00;;;19.30;74.00;;;;;;5044660;28;20538;-73
2021/09/20 09:35:31;;;;;;;38.97;36.07;;;19.30;74.10;;;;;;5038088;28;20556;-72
2021/09/20 09:38:01;;;;;;;39.23;36.10;;;19.20;74.00;;;;;;5042096;28;20949;-72
2021/09/20 09:40:30;;;;;;;42.93;39.20;;;19.30;73.90;;;;;;5047347;28;20471;-72
2021/09/20 09:43:00;;;;;;;40.67;37.63;;;19.30;73.50;;;;;;5042428;28;20562;-72
2021/09/20 09:45:32;;;;;;;41.17;37.83;;;19.20;73.50;;;;;;5036667;28;20582;-72
2021/09/20 09:48:18;;;;;;;40.10;37.10;;;19.10;74.20;;;;;;5036388;28;20541;-72
2021/09/20 09:50:48;;;;;;;39.43;36.53;;;19.20;74.60;;;;;;5045817;28;21191;-72
2021/09/20 09:53:32;;;;;;;42.07;38.67;;;19.30;74.20;;;;;;5032012;28;20455;-72
2021/09/20 09:56:03;;;;;;;39.60;36.67;;;19.30;74.60;;;;;;5037166;28;20475;-71
2021/09/20 09:58:30;;;;;;;40.67;37.50;;;19.20;74.00;;;;;;5035181;28;20459;-72
2021/09/20 10:01:17;;;;;;;41.93;38.63;;;19.20;74.20;;;;;;5041048;28;20478;-72
2021/09/20 10:04:09;;;;;;;40.37;37.50;;;19.40;73.70;;;;;;5035405;28;20483;-72
2021/09/20 10:06:52;;;;;;;40.30;37.40;;;19.10;73.90;;;;;;5035308;28;20496;-73
2021/09/20 10:09:21;;;;;;;43.73;40.53;;;18.60;75.60;;;;;;5036596;28;20482;-73
2021/09/20 10:11:50;;;;;;;40.30;37.30;;;18.50;76.30;;;;;;5039097;28;20462;-72
2021/09/20 10:14:19;;;;;;;40.83;37.60;;;18.30;76.70;;;;;;5040953;28;20461;-73
2021/09/20 10:16:49;;;;;;;41.60;38.23;;;18.40;76.60;;;;;;5042200;28;20463;-73
2021/09/20 10:19:17;;;;;;;41.67;38.30;;;18.30;77.10;;;;;;5041360;28;20558;-73
2021/09/20 10:21:44;;;;;;;41.83;38.83;;;18.40;76.80;;;;;;5039118;28;20463;-72
2021/09/20 10:24:11;;;;;;;41.40;38.20;;;18.30;77.10;;;;;;5045726;28;21025;-74
2021/09/20 10:26:38;;;;;;;41.10;38.07;;;18.40;76.60;;;;;;5041559;28;20491;-72
2021/09/20 10:29:08;;;;;;;41.57;38.50;;;18.40;76.50;;;;;;5036391;28;20525;-72
2021/09/20 10:31:36;;;;;;;39.67;36.60;;;18.80;75.30;;;;;;5045354;28;20467;-72
2021/09/20 10:34:28;;;;;;;40.27;37.27;;;19.00;74.50;;;;;;5044551;28;20496;-72
2021/09/20 10:36:59;;;;;;;40.43;37.43;;;19.00;74.30;;;;;;5026657;28;20467;-71
2021/09/20 10:40:04;;;;;;;39.50;36.67;;;19.00;74.50;;;;;;5043937;28;20570;-71
2021/09/20 10:43:00;;;;;;;40.97;37.87;;;19.00;74.40;;;;;;4981777;28;20458;-72
2021/09/20 10:45:55;;;;;;;40.63;37.60;;;18.80;75.40;;;;;;4980322;28;20544;-71
2021/09/20 10:48:28;;;;;;;40.50;37.57;;;18.70;76.00;;;;;;5032017;28;20474;-71
2021/09/20 10:50:58;;;;;;;41.40;38.30;;;18.70;75.30;;;;;;5040419;28;20498;-71
2021/09/20 10:53:32;;;;;;;40.73;37.60;;;18.80;75.40;;;;;;5046871;28;20550;-72
2021/09/20 10:56:17;;;;;;;40.77;37.70;;;19.00;75.20;;;;;;5043377;28;20582;-72
2021/09/20 10:59:08;;;;;;;40.40;37.50;;;19.30;73.80;;;;;;5042429;28;20466;-72
2021/09/20 11:01:37;;;;;;;40.27;37.27;;;19.40;73.70;;;;;;5039120;28;20541;-72
2021/09/20 11:04:10;;;;;;;40.70;37.80;;;19.60;73.00;;;;;;5040819;28;20591;-72
2021/09/20 11:06:38;;;;;;;41.87;38.87;;;19.80;71.90;;;;;;5036824;28;20508;-71
2021/09/20 11:09:31;;;;;;;39.47;36.17;;;19.80;71.00;;;;;;5037501;28;20483;-72
2021/09/20 11:12:13;;;;;;;40.93;37.90;;;19.90;70.50;;;;;;5048375;28;20459;-71
2021/09/20 11:14:48;;;;;;;41.17;38.10;;;19.90;70.40;;;;;;5049424;28;20538;-71
2021/09/20 11:17:29;;;;;;;39.37;36.30;;;19.90;71.10;;;;;;5040748;28;20461;-72
2021/09/20 11:19:58;;;;;;;41.70;38.60;;;19.50;71.90;;;;;;5048530;28;20474;-72
2021/09/20 11:22:31;;;;;;;41.23;38.23;;;19.40;71.70;;;;;;5045179;28;20491;-72
2021/09/20 11:25:06;;;;;;;40.93;37.97;;;19.40;72.00;;;;;;5046246;28;20451;-71
2021/09/20 11:27:37;;;;;;;40.30;37.40;;;19.50;72.20;;;;;;5041365;28;20451;-71
2021/09/20 11:30:09;;;;;;;40.93;37.83;;;19.50;72.50;;;;;;5040139;28;20596;-72
2021/09/20 11:32:45;;;;;;;41.10;38.10;;;19.70;71.40;;;;;;5042170;28;20454;-71
2021/09/20 11:35:13;;;;;;;41.87;38.80;;;19.70;71.60;;;;;;5044646;28;20470;-71
2021/09/20 11:37:40;;;;;;;41.03;37.60;;;19.70;71.50;;;;;;5046876;28;20463;-74
2021/09/20 11:40:09;;;;;;;40.50;37.50;;;19.70;71.20;;;;;;5041233;28;20486;-71
2021/09/20 11:42:46;;;;;;;39.37;36.57;;;19.60;72.10;;;;;;5048528;28;20451;-71
2021/09/20 11:45:17;;;;;;;39.33;36.60;;;19.80;71.50;;;;;;5047182;28;20460;-71
2021/09/20 11:47:48;;;;;;;38.93;36.20;;;20.10;71.10;;;;;;5045339;28;20461;-71
2021/09/20 11:50:17;;;;;;;39.90;36.80;;;20.40;70.30;;;;;;5049341;28;20820;-71
2021/09/20 11:52:46;;;;;;;40.13;37.13;;;20.80;68.20;;;;;;5037235;28;20540;-71
2021/09/20 11:55:17;;;;;;;37.67;35.07;;;20.80;67.40;;;;;;5045000;28;20546;-71
2021/09/20 11:57:44;;;;;;;39.30;36.50;;;20.70;68.10;;;;;;5044223;28;20844;-71
2021/09/20 12:00:14;;;;;;;39.90;37.10;;;20.70;67.70;;;;;;5050161;28;20992;-72
2021/09/20 12:02:43;;;;;;;38.67;35.90;;;20.80;67.80;;;;;;5045880;28;20458;-71
2021/09/20 12:05:13;;;;;;;39.53;36.73;;;20.80;67.90;;;;;;5040405;28;20462;-73
2021/09/20 12:07:49;;;;;;;38.90;36.20;;;20.90;67.30;;;;;;5040422;28;20473;-71
2021/09/20 12:10:17;;;;;;;39.50;36.70;;;20.80;66.30;;;;;;5034581;28;21003;-71
2021/09/20 12:12:47;;;;;;;38.87;36.13;;;20.80;67.20;;;;;;5044147;28;20462;-70
2021/09/20 12:15:15;;;;;;;37.90;35.27;;;20.60;68.00;;;;;;5042557;28;20884;-71
2021/09/20 12:17:51;;;;;;;37.00;34.60;;;20.30;68.90;;;;;;5046516;28;20470;-71
2021/09/20 12:20:22;;;;;;;37.87;35.07;;;20.30;69.00;;;;;;5043164;28;20474;-71
2021/09/20 12:22:50;;;;;;;36.30;33.90;;;20.30;68.70;;;;;;5036787;28;20455;-71
2021/09/20 12:25:43;;;;;;;37.87;35.03;;;20.30;68.50;;;;;;5040190;28;20501;-71
2021/09/20 12:28:21;;;;;;;35.60;33.17;;;20.40;68.80;;;;;;5038580;28;20483;-71
2021/09/20 12:31:03;;;;;;;35.93;33.33;;;20.40;68.60;;;;;;5037755;28;20478;-71
2021/09/20 12:33:30;;;;;;;37.00;34.40;;;20.20;68.60;;;;;;5041448;28;20557;-71
2021/09/20 12:35:59;;;;;;;37.83;35.10;;;20.20;69.00;;;;;;5040076;28;20889;-71
2021/09/20 12:38:33;;;;;;;36.80;34.17;;;20.30;69.20;;;;;;5034242;28;20961;-71